Time;durP1;ratioP1;P1;durP2;ratioP2;P2;SDS_P1;SDS_P2;PMS_P1;PMS_P2;Temp;Humidity;BMP_temperature;BMP_pressure;BME280_temperature;BME280_humidity;BME280_pressure;Samples;Min_cycle;Max_cycle;Signal;HPM_P1;HPM_P2
2022/08/08 00:00:18;;;;;;;5.23;4.80;;;16.70;99.90;;;;;;5087232;28;20269;-66
2022/08/08 00:03:13;;;;;;;5.27;4.83;;;16.70;99.90;;;;;;5072075;28;20201;-66
2022/08/08 00:05:45;;;;;;;5.83;4.80;;;16.60;99.90;;;;;;5071625;28;20623;-67
2022/08/08 00:08:45;;;;;;;4.77;4.47;;;16.60;99.90;;;;;;5071857;28;20175;-66
2022/08/08 00:11:15;;;;;;;4.97;4.50;;;16.60;99.90;;;;;;5070968;28;20194;-66
2022/08/08 00:14:03;;;;;;;5.13;4.73;;;16.60;99.90;;;;;;5071630;28;20186;-66
2022/08/08 00:16:43;;;;;;;4.77;4.20;;;16.60;99.90;;;;;;5071834;28;20679;-66
2022/08/08 00:19:18;;;;;;;4.63;4.33;;;16.60;99.90;;;;;;5071849;28;20176;-66
2022/08/08 00:21:56;;;;;;;4.87;4.47;;;16.60;99.90;;;;;;5071855;28;20169;-66
2022/08/08 00:24:51;;;;;;;5.20;4.70;;;16.60;99.90;;;;;;5065951;28;20178;-66
2022/08/08 00:27:19;;;;;;;4.93;4.57;;;16.50;99.90;;;;;;5070893;28;20195;-65
2022/08/08 00:30:03;;;;;;;4.97;4.47;;;16.40;99.90;;;;;;5071664;28;20178;-66
2022/08/08 00:32:55;;;;;;;4.93;4.63;;;16.40;99.90;;;;;;5071370;28;20178;-65
2022/08/08 00:35:29;;;;;;;5.30;4.77;;;16.40;99.90;;;;;;5062539;28;20711;-66
2022/08/08 00:38:03;;;;;;;4.80;4.40;;;16.30;99.90;;;;;;5071473;28;20210;-66
2022/08/08 00:40:29;;;;;;;5.07;4.70;;;16.40;99.90;;;;;;5071664;28;20256;-66
2022/08/08 00:43:25;;;;;;;5.23;4.83;;;16.40;99.90;;;;;;5071491;28;20742;-66
2022/08/08 00:46:21;;;;;;;6.37;4.97;;;16.30;99.90;;;;;;5066901;28;20194;-67
2022/08/08 00:49:06;;;;;;;5.63;4.33;;;16.30;99.90;;;;;;5066426;28;20205;-67
2022/08/08 00:51:56;;;;;;;4.83;4.53;;;16.20;99.90;;;;;;5064171;28;20170;-66
2022/08/08 00:54:33;;;;;;;6.00;4.80;;;16.20;99.90;;;;;;5070978;28;20265;-66
2022/08/08 00:57:23;;;;;;;6.40;4.90;;;16.10;99.90;;;;;;5071278;28;20200;-66
2022/08/08 01:00:01;;;;;;;5.10;4.60;;;16.10;99.90;;;;;;5066130;28;20530;-65
2022/08/08 01:02:41;;;;;;;5.23;4.53;;;16.10;99.90;;;;;;5071183;28;20174;-66
2022/08/08 01:05:39;;;;;;;5.13;4.73;;;16.00;99.90;;;;;;5070631;28;20197;-66
2022/08/08 01:08:36;;;;;;;5.67;5.17;;;16.00;99.90;;;;;;5071034;28;20756;-67
2022/08/08 01:11:30;;;;;;;5.50;5.00;;;15.90;99.90;;;;;;5071117;28;20180;-64
2022/08/08 01:14:25;;;;;;;4.93;4.60;;;15.90;99.90;;;;;;5066147;28;20174;-67
2022/08/08 01:17:19;;;;;;;5.50;5.07;;;15.80;99.90;;;;;;5071126;28;20170;-67
2022/08/08 01:20:18;;;;;;;5.73;5.23;;;15.70;99.90;;;;;;5070928;28;20170;-66
2022/08/08 01:23:17;;;;;;;5.67;5.23;;;15.60;99.90;;;;;;5070972;28;20186;-67
2022/08/08 01:26:18;;;;;;;5.63;5.13;;;15.50;99.90;;;;;;5070754;28;20217;-66
2022/08/08 01:29:09;;;;;;;6.87;5.27;;;15.50;99.90;;;;;;5070965;28;20206;-65
2022/08/08 01:32:10;;;;;;;6.30;5.27;;;15.40;99.90;;;;;;5070658;28;20174;-64
2022/08/08 01:35:06;;;;;;;5.80;5.30;;;15.40;99.90;;;;;;5070300;28;20237;-66
2022/08/08 01:37:41;;;;;;;5.67;5.20;;;15.30;99.90;;;;;;5070771;28;20178;-66
2022/08/08 01:40:31;;;;;;;5.73;5.33;;;15.30;99.90;;;;;;5070973;28;20177;-66
2022/08/08 01:43:13;;;;;;;5.77;5.37;;;15.30;99.90;;;;;;5065264;28;20182;-65
2022/08/08 01:45:56;;;;;;;5.87;5.47;;;15.30;99.90;;;;;;5070419;28;20695;-66
2022/08/08 01:48:30;;;;;;;5.93;5.43;;;15.20;99.90;;;;;;5070720;28;20177;-66
2022/08/08 01:51:31;;;;;;;6.23;5.83;;;15.20;99.90;;;;;;5070765;28;20228;-67
2022/08/08 01:54:27;;;;;;;6.47;5.97;;;15.10;99.90;;;;;;5070431;28;20223;-66
2022/08/08 01:56:58;;;;;;;6.73;6.13;;;15.10;99.90;;;;;;5070670;28;20647;-67
2022/08/08 01:59:51;;;;;;;6.57;5.97;;;15.00;99.90;;;;;;5070764;28;20706;-67
2022/08/08 02:02:35;;;;;;;6.53;6.07;;;15.00;99.90;;;;;;5070692;28;20190;-66
2022/08/08 02:05:29;;;;;;;6.67;5.90;;;14.90;99.90;;;;;;5070035;28;20610;-66
2022/08/08 02:08:04;;;;;;;6.87;6.27;;;14.90;99.90;;;;;;5070727;28;20185;-67
2022/08/08 02:11:18;;;;;;;6.90;5.83;;;14.90;99.90;;;;;;5070407;28;20182;-66
2022/08/08 02:14:05;;;;;;;6.63;5.87;;;14.90;99.90;;;;;;5069970;28;20605;-66
2022/08/08 02:16:51;;;;;;;7.00;6.40;;;14.90;99.90;;;;;;5060106;28;20194;-66
2022/08/08 02:19:35;;;;;;;6.37;5.87;;;14.80;99.90;;;;;;5070937;28;20174;-66
2022/08/08 02:22:31;;;;;;;6.40;5.90;;;14.80;99.90;;;;;;5064354;28;20181;-67
2022/08/08 02:25:21;;;;;;;7.00;6.30;;;14.70;99.90;;;;;;5066765;28;20209;-67
2022/08/08 02:28:04;;;;;;;11.00;6.10;;;14.70;99.90;;;;;;5073814;28;20174;-67
2022/08/08 02:30:41;;;;;;;7.00;6.40;;;14.60;99.90;;;;;;5073886;28;20182;-66
2022/08/08 02:33:34;;;;;;;6.97;6.17;;;14.60;99.90;;;;;;5073791;28;20527;-65
2022/08/08 02:36:20;;;;;;;6.53;5.87;;;14.60;99.90;;;;;;5072231;28;20805;-66
2022/08/08 02:39:30;;;;;;;6.50;6.00;;;14.60;99.90;;;;;;5071172;28;20201;-66
2022/08/08 02:42:26;;;;;;;6.23;5.70;;;14.50;99.90;;;;;;5066090;28;20169;-66
2022/08/08 02:45:23;;;;;;;6.97;6.30;;;14.50;99.90;;;;;;5073034;28;20229;-66
2022/08/08 02:48:23;;;;;;;7.53;6.83;;;14.50;99.90;;;;;;5073421;28;20567;-65
2022/08/08 02:51:01;;;;;;;7.03;6.43;;;14.40;99.90;;;;;;5073618;28;20193;-66
2022/08/08 02:54:03;;;;;;;8.27;7.47;;;14.40;99.90;;;;;;5073439;28;20178;-65
2022/08/08 02:57:00;;;;;;;9.73;6.47;;;14.40;99.90;;;;;;5073452;28;20202;-65
2022/08/08 02:59:50;;;;;;;7.07;6.47;;;14.30;99.90;;;;;;5073313;28;20209;-66
2022/08/08 03:02:40;;;;;;;7.17;6.57;;;14.30;99.90;;;;;;5073470;28;20201;-66
2022/08/08 03:05:24;;;;;;;7.50;6.80;;;14.30;99.90;;;;;;5072734;28;20209;-65
2022/08/08 03:08:17;;;;;;;7.77;6.97;;;14.30;99.90;;;;;;5072888;28;20178;-66
2022/08/08 03:10:55;;;;;;;7.67;6.77;;;14.20;99.90;;;;;;5072892;28;20620;-65
2022/08/08 03:13:34;;;;;;;7.63;7.07;;;14.20;99.90;;;;;;5073048;28;20617;-66
2022/08/08 03:16:19;;;;;;;8.93;7.03;;;14.20;99.90;;;;;;5072968;28;20189;-66
2022/08/08 03:18:53;;;;;;;8.13;7.33;;;14.20;99.90;;;;;;5072786;28;20182;-65
2022/08/08 03:21:19;;;;;;;7.80;7.00;;;14.20;99.90;;;;;;5072961;28;20589;-65
2022/08/08 03:23:45;;;;;;;11.23;7.50;;;14.10;99.90;;;;;;5072457;28;20208;-66
2022/08/08 03:26:28;;;;;;;8.07;7.30;;;14.10;99.90;;;;;;5072816;28;20210;-65
2022/08/08 03:29:00;;;;;;;7.67;7.03;;;14.10;99.90;;;;;;5072673;28;20173;-66
2022/08/08 03:34:12;;;;;;;7.77;7.07;;;14.00;99.90;;;;;;5063994;28;20180;-66
2022/08/08 03:36:42;;;;;;;7.47;6.87;;;13.90;99.90;;;;;;5072761;28;20239;-65
2022/08/08 03:39:12;;;;;;;8.73;7.93;;;13.90;99.90;;;;;;5064402;28;20206;-65
2022/08/08 03:41:38;;;;;;;7.97;7.20;;;13.90;99.90;;;;;;5072492;28;20205;-65
2022/08/08 03:44:04;;;;;;;8.70;7.43;;;13.80;99.90;;;;;;5072018;28;20263;-66
2022/08/08 03:46:29;;;;;;;7.70;6.90;;;13.70;99.90;;;;;;5072504;28;20573;-66
2022/08/08 03:49:00;;;;;;;7.80;7.10;;;13.70;99.90;;;;;;5072031;28;20178;-65
2022/08/08 03:51:26;;;;;;;7.17;6.40;;;13.80;99.90;;;;;;5072223;28;20292;-66
2022/08/08 03:53:53;;;;;;;8.53;7.70;;;13.80;99.90;;;;;;5071837;28;20166;-64
2022/08/08 03:56:20;;;;;;;10.43;8.53;;;13.70;99.90;;;;;;5072305;28;20544;-65
2022/08/08 03:58:50;;;;;;;9.60;8.60;;;13.70;99.90;;;;;;5072429;28;20698;-66
2022/08/08 04:01:16;;;;;;;8.13;7.33;;;13.70;99.90;;;;;;5071733;28;20200;-66
2022/08/08 04:03:48;;;;;;;8.17;7.37;;;13.70;99.90;;;;;;5071639;28;20185;-65
2022/08/08 04:06:14;;;;;;;8.17;7.47;;;13.70;99.90;;;;;;5071260;28;20573;-65
2022/08/08 04:08:40;;;;;;;7.53;6.80;;;13.60;99.90;;;;;;5072057;28;20244;-66
2022/08/08 04:11:07;;;;;;;8.03;7.27;;;13.70;99.90;;;;;;5071952;28;20182;-65
2022/08/08 04:13:33;;;;;;;7.93;7.13;;;13.70;99.90;;;;;;5071632;28;20667;-65
2022/08/08 04:15:59;;;;;;;8.17;7.43;;;13.60;99.90;;;;;;5071645;28;20384;-65
2022/08/08 04:18:24;;;;;;;8.23;7.53;;;13.60;99.90;;;;;;5072028;28;20261;-66
2022/08/08 04:20:50;;;;;;;10.93;8.40;;;13.60;99.90;;;;;;5071787;28;20178;-65
2022/08/08 04:23:16;;;;;;;9.37;7.73;;;13.60;99.90;;;;;;5071754;28;20185;-65
2022/08/08 04:25:42;;;;;;;9.87;8.33;;;13.60;99.90;;;;;;5071187;28;20237;-65
2022/08/08 04:28:08;;;;;;;8.70;7.93;;;13.60;99.90;;;;;;5071606;28;20539;-65
2022/08/08 04:30:34;;;;;;;8.47;7.77;;;13.60;99.90;;;;;;5071715;28;20182;-65
2022/08/08 04:32:59;;;;;;;9.17;8.37;;;13.60;99.90;;;;;;5071317;28;20198;-65
2022/08/08 04:35:26;;;;;;;8.67;7.77;;;13.60;99.90;;;;;;5091354;22;20225;-68
2022/08/08 04:37:53;;;;;;;8.43;7.63;;;13.70;99.90;;;;;;5066492;28;20647;-68
2022/08/08 04:40:19;;;;;;;9.57;8.40;;;13.70;99.90;;;;;;5051200;28;20651;-68
2022/08/08 04:42:46;;;;;;;9.60;7.40;;;13.70;99.90;;;;;;5051241;28;20514;-68
2022/08/08 04:45:12;;;;;;;9.33;8.20;;;13.80;99.90;;;;;;5059390;28;20232;-68
2022/08/08 04:47:37;;;;;;;9.40;8.50;;;13.80;99.90;;;;;;5033241;28;20173;-68
2022/08/08 04:50:04;;;;;;;9.87;8.60;;;13.80;99.90;;;;;;5033461;28;20167;-68
2022/08/08 04:52:29;;;;;;;11.90;8.47;;;13.90;99.90;;;;;;5033410;28;20175;-68
2022/08/08 04:54:55;;;;;;;9.40;8.43;;;13.90;99.90;;;;;;5032896;28;20548;-68
2022/08/08 04:57:21;;;;;;;12.17;8.13;;;14.00;99.90;;;;;;5033024;28;20652;-68
2022/08/08 04:59:47;;;;;;;9.57;8.67;;;14.10;99.90;;;;;;5050988;28;20589;-68
2022/08/08 05:02:12;;;;;;;10.20;8.30;;;14.10;99.90;;;;;;5032915;28;20579;-68
2022/08/08 05:04:38;;;;;;;8.93;7.80;;;14.20;99.90;;;;;;5032609;28;20209;-68
2022/08/08 05:07:04;;;;;;;9.67;8.03;;;14.30;99.90;;;;;;5033134;28;20199;-68
2022/08/08 05:09:30;;;;;;;8.10;7.40;;;14.30;99.90;;;;;;5050745;28;20178;-68
2022/08/08 05:11:55;;;;;;;8.60;8.00;;;14.40;99.90;;;;;;5050893;28;20248;-68
2022/08/08 05:14:21;;;;;;;11.67;8.60;;;14.40;99.90;;;;;;5050503;28;20185;-68
2022/08/08 05:16:47;;;;;;;8.80;8.00;;;14.50;99.90;;;;;;5050123;28;20187;-68
2022/08/08 05:19:12;;;;;;;9.50;8.53;;;14.60;99.90;;;;;;5050648;28;20198;-68
2022/08/08 05:21:41;;;;;;;12.43;8.23;;;14.70;99.90;;;;;;5050464;28;20675;-68
2022/08/08 05:24:09;;;;;;;10.53;8.90;;;14.70;99.90;;;;;;5032688;28;20178;-68
2022/08/08 05:26:35;;;;;;;9.40;8.60;;;14.80;99.90;;;;;;5032428;28;20210;-68
2022/08/08 05:29:10;;;;;;;8.80;7.90;;;14.90;99.90;;;;;;5032735;28;20671;-68
2022/08/08 05:31:36;;;;;;;9.00;8.20;;;15.00;99.90;;;;;;5032577;28;20188;-68
2022/08/08 05:34:10;;;;;;;13.40;8.13;;;15.10;99.90;;;;;;5032347;28;20687;-68
2022/08/08 05:36:37;;;;;;;9.27;7.73;;;15.20;99.90;;;;;;5031924;28;20302;-68
2022/08/08 05:39:04;;;;;;;8.50;7.80;;;15.30;99.90;;;;;;5032649;28;20175;-68
2022/08/08 05:41:34;;;;;;;8.73;7.33;;;15.40;99.90;;;;;;5032468;28;20174;-68
2022/08/08 05:44:11;;;;;;;8.77;8.07;;;15.50;99.90;;;;;;5032359;28;20544;-68
2022/08/08 05:46:39;;;;;;;6.87;6.27;;;15.60;99.90;;;;;;5032348;28;20209;-68
2022/08/08 05:49:05;;;;;;;7.77;7.00;;;15.80;99.90;;;;;;5032652;28;20532;-68
2022/08/08 05:51:31;;;;;;;8.53;7.70;;;16.00;99.90;;;;;;5032559;28;20182;-68
2022/08/08 05:53:57;;;;;;;12.00;6.93;;;16.20;99.90;;;;;;5050110;28;20179;-68
2022/08/08 05:56:25;;;;;;;8.03;7.33;;;16.40;99.90;;;;;;5032347;28;20195;-68
2022/08/08 05:59:05;;;;;;;8.47;7.03;;;16.60;99.90;;;;;;5049472;28;20581;-68
2022/08/08 06:01:31;;;;;;;9.70;7.73;;;16.90;99.90;;;;;;5036245;28;20179;-68
2022/08/08 06:04:03;;;;;;;7.87;7.23;;;17.00;99.90;;;;;;5035973;28;20185;-68
2022/08/08 06:06:30;;;;;;;7.97;7.20;;;17.10;99.90;;;;;;5031128;28;20221;-68
2022/08/08 06:09:02;;;;;;;8.50;7.70;;;17.10;99.90;;;;;;5050837;28;20183;-68
2022/08/08 06:11:31;;;;;;;8.60;7.90;;;17.20;99.90;;;;;;5035956;28;20183;-68
2022/08/08 06:13:57;;;;;;;9.13;8.23;;;17.20;99.90;;;;;;5035725;28;20743;-68
2022/08/08 06:16:23;;;;;;;7.53;6.83;;;17.30;99.90;;;;;;5035226;28;20260;-69
2022/08/08 06:18:50;;;;;;;8.23;7.43;;;17.40;99.90;;;;;;5032522;28;20180;-68
2022/08/08 06:21:16;;;;;;;9.47;7.27;;;17.80;99.90;;;;;;5016608;28;20274;-68
2022/08/08 06:23:41;;;;;;;8.53;6.77;;;18.40;99.90;;;;;;5044506;28;20183;-68
2022/08/08 06:26:10;;;;;;;7.03;6.37;;;18.90;99.90;;;;;;5035784;28;20210;-68
2022/08/08 06:28:57;;;;;;;7.53;6.13;;;19.40;99.90;;;;;;5035702;28;20209;-67
2022/08/08 06:31:24;;;;;;;6.53;5.93;;;19.90;99.90;;;;;;5035606;28;20178;-67
2022/08/08 06:34:02;;;;;;;7.72;6.85;;;20.40;99.90;;;;;;5053040;28;20190;-67
2022/08/08 06:36:34;;;;;;;6.65;5.95;;;21.10;99.90;;;;;;5053415;28;20249;-67
2022/08/08 06:39:01;;;;;;;6.55;5.95;;;21.60;99.90;;;;;;5053552;28;20178;-67
2022/08/08 06:41:33;;;;;;;6.85;6.15;;;21.90;99.90;;;;;;5053291;28;20647;-66
2022/08/08 06:44:02;;;;;;;8.05;6.28;;;21.80;99.90;;;;;;5052845;28;20290;-66
2022/08/08 06:46:29;;;;;;;7.15;6.00;;;21.80;99.90;;;;;;5053298;28;20209;-66
2022/08/08 06:48:56;;;;;;;5.38;4.90;;;21.90;99.90;;;;;;5052962;28;20191;-66
2022/08/08 06:51:22;;;;;;;6.35;5.68;;;21.90;99.90;;;;;;5035306;28;20266;-68
2022/08/08 06:53:48;;;;;;;5.82;4.97;;;22.00;99.90;;;;;;5034762;28;20187;-68
2022/08/08 06:56:14;;;;;;;7.30;5.50;;;22.30;99.90;;;;;;5035195;28;20249;-68
2022/08/08 06:58:39;;;;;;;6.30;5.70;;;22.70;99.90;;;;;;5035426;28;20526;-66
2022/08/08 07:01:12;;;;;;;6.10;5.50;;;23.20;99.90;;;;;;5052961;28;20186;-66
2022/08/08 07:04:08;;;;;;;6.32;5.72;;;23.50;99.90;;;;;;5034994;28;20189;-66
2022/08/08 07:06:39;;;;;;;7.05;6.38;;;23.70;99.90;;;;;;5034848;28;20209;-66
2022/08/08 07:09:12;;;;;;;8.13;5.88;;;23.60;99.90;;;;;;5052538;28;20656;-66
2022/08/08 07:11:41;;;;;;;7.95;6.03;;;23.40;99.90;;;;;;5034970;28;20266;-66
2022/08/08 07:14:14;;;;;;;5.78;5.28;;;23.30;99.90;;;;;;5052013;28;20206;-66
2022/08/08 07:16:50;;;;;;;6.75;6.15;;;23.10;99.90;;;;;;5052763;28;20222;-66
2022/08/08 07:19:35;;;;;;;6.60;5.88;;;23.10;99.90;;;;;;5052947;28;20178;-66
2022/08/08 07:22:08;;;;;;;5.97;5.38;;;23.00;99.90;;;;;;5034578;28;20175;-66
2022/08/08 07:24:49;;;;;;;6.85;6.25;;;22.90;99.90;;;;;;5034449;28;20210;-66
2022/08/08 07:27:17;;;;;;;6.93;5.70;;;22.90;99.90;;;;;;5034539;28;20201;-67
2022/08/08 07:29:43;;;;;;;6.82;5.80;;;23.10;99.90;;;;;;5049813;28;20232;-68
2022/08/08 07:32:11;;;;;;;6.15;5.40;;;23.50;99.90;;;;;;5052458;28;20198;-66
2022/08/08 07:34:36;;;;;;;7.53;5.32;;;24.00;99.90;;;;;;5034402;28;20229;-66
2022/08/08 07:37:04;;;;;;;6.70;5.00;;;24.50;99.90;;;;;;5052497;28;20237;-66
2022/08/08 07:39:31;;;;;;;7.95;5.43;;;25.00;99.90;;;;;;5034188;28;20181;-66
2022/08/08 07:41:58;;;;;;;5.85;5.05;;;25.50;99.90;;;;;;5034422;28;20203;-66
2022/08/08 07:44:24;;;;;;;4.90;4.50;;;25.70;99.90;;;;;;5033931;28;20171;-66
2022/08/08 07:46:50;;;;;;;4.32;4.03;;;25.90;99.90;;;;;;5034126;28;20213;-67
2022/08/08 07:49:16;;;;;;;5.40;4.90;;;26.30;99.90;;;;;;5052111;28;20648;-67
2022/08/08 07:51:42;;;;;;;6.85;4.50;;;26.90;99.90;;;;;;5034041;28;20167;-66
2022/08/08 07:54:17;;;;;;;5.47;4.70;;;27.20;99.90;;;;;;5034096;28;20218;-66
2022/08/08 07:56:47;;;;;;;4.57;4.18;;;27.60;99.90;;;;;;5051823;28;20202;-66
2022/08/08 07:59:15;;;;;;;4.70;4.25;;;28.10;99.90;;;;;;5052078;28;20175;-67
2022/08/08 08:01:56;;;;;;;5.85;5.10;;;28.50;99.90;;;;;;5046686;28;20187;-66
2022/08/08 08:04:28;;;;;;;5.22;3.90;;;28.70;99.90;;;;;;5048723;28;20213;-66
2022/08/08 08:06:57;;;;;;;5.30;4.55;;;28.70;99.90;;;;;;5045093;28;20194;-66
2022/08/08 08:09:32;;;;;;;4.35;3.95;;;28.70;99.90;;;;;;5034026;28;20171;-67
2022/08/08 08:11:58;;;;;;;6.68;4.65;;;29.00;99.90;;;;;;5033778;28;20243;-67
2022/08/08 08:14:55;;;;;;;4.70;4.30;;;29.00;99.90;;;;;;5033659;28;20174;-67
2022/08/08 08:17:24;;;;;;;5.90;4.22;;;29.30;99.90;;;;;;5028935;28;20260;-66
2022/08/08 08:19:55;;;;;;;4.32;3.88;;;29.50;99.90;;;;;;5050813;28;20171;-67
2022/08/08 08:22:20;;;;;;;4.65;4.20;;;29.40;99.90;;;;;;5051498;28;20674;-67
2022/08/08 08:24:46;;;;;;;11.80;6.38;;;29.40;99.90;;;;;;5032936;28;20278;-70
2022/08/08 08:27:12;;;;;;;6.13;4.32;;;29.20;99.90;;;;;;5033617;28;20195;-66
2022/08/08 08:29:37;;;;;;;5.25;4.47;;;29.10;99.90;;;;;;5051255;28;20174;-67
2022/08/08 08:32:04;;;;;;;4.82;4.28;;;29.10;99.90;;;;;;5033542;28;20660;-66
2022/08/08 08:34:30;;;;;;;6.55;4.50;;;29.20;99.90;;;;;;5033379;28;20179;-66
2022/08/08 08:36:56;;;;;;;4.60;4.20;;;29.30;99.90;;;;;;5032931;28;20206;-66
2022/08/08 08:39:21;;;;;;;5.05;3.85;;;29.50;99.90;;;;;;5051210;28;20171;-66
2022/08/08 08:41:48;;;;;;;5.32;3.90;;;29.50;99.90;;;;;;5033476;28;20220;-67
2022/08/08 08:44:15;;;;;;;4.10;3.70;;;29.60;99.90;;;;;;5032771;28;20182;-66
2022/08/08 08:46:41;;;;;;;7.03;3.45;;;29.90;99.90;;;;;;5033230;28;20260;-66
2022/08/08 08:49:08;;;;;;;4.68;4.22;;;30.30;99.90;;;;;;5033220;28;20484;-66
2022/08/08 08:51:40;;;;;;;4.72;3.70;;;30.30;99.90;;;;;;5050666;28;20221;-66
2022/08/08 08:54:07;;;;;;;4.97;3.60;;;30.30;99.90;;;;;;5050575;28;20170;-67
2022/08/08 08:56:35;;;;;;;3.72;3.42;;;30.20;99.50;;;;;;5046983;28;20735;-66
2022/08/08 08:59:03;;;;;;;4.88;3.85;;;30.50;99.90;;;;;;5033245;28;20182;-67
2022/08/08 09:01:40;;;;;;;4.85;3.70;;;30.90;99.50;;;;;;5024660;28;20183;-66
2022/08/08 09:04:18;;;;;;;4.00;3.70;;;31.10;98.30;;;;;;5050532;28;20170;-66
2022/08/08 09:06:45;;;;;;;3.95;3.65;;;31.10;97.30;;;;;;5050572;28;20240;-66
2022/08/08 09:09:34;;;;;;;4.05;3.38;;;31.00;97.30;;;;;;5046480;28;20167;-66
2022/08/08 09:12:01;;;;;;;4.35;3.78;;;30.80;98.20;;;;;;5042356;28;20528;-66
2022/08/08 09:14:28;;;;;;;4.55;3.38;;;30.70;98.10;;;;;;5050781;28;20171;-66
2022/08/08 09:16:54;;;;;;;5.05;3.47;;;31.10;96.40;;;;;;5050380;28;20203;-66
2022/08/08 09:19:19;;;;;;;5.88;3.53;;;31.20;97.20;;;;;;5050917;28;20217;-66
2022/08/08 09:21:47;;;;;;;4.03;3.63;;;31.20;96.20;;;;;;5050193;28;20174;-66
2022/08/08 09:24:16;;;;;;;4.65;3.95;;;31.10;95.60;;;;;;5050575;28;20167;-66
2022/08/08 09:26:50;;;;;;;3.65;3.35;;;30.80;94.60;;;;;;5050513;28;20210;-66
2022/08/08 09:29:23;;;;;;;3.33;3.13;;;30.60;95.70;;;;;;5025791;28;20205;-66
2022/08/08 09:31:59;;;;;;;5.70;3.50;;;30.60;94.30;;;;;;5032211;28;20230;-66
2022/08/08 09:34:26;;;;;;;3.67;3.38;;;30.50;95.40;;;;;;5036664;28;20174;-66
2022/08/08 09:37:07;;;;;;;4.05;3.33;;;30.50;94.70;;;;;;5054172;28;20209;-66
2022/08/08 09:39:48;;;;;;;3.33;3.03;;;30.60;93.90;;;;;;5036791;28;20178;-66
2022/08/08 09:42:15;;;;;;;4.05;3.22;;;30.60;93.70;;;;;;5036740;28;20171;-66
2022/08/08 09:45:06;;;;;;;3.72;3.42;;;30.80;93.30;;;;;;5036226;28;20171;-66
2022/08/08 09:47:34;;;;;;;3.35;3.00;;;30.70;91.70;;;;;;5046969;28;20174;-66
2022/08/08 09:50:03;;;;;;;3.63;3.33;;;30.60;91.80;;;;;;5054378;28;20186;-66
2022/08/08 09:52:32;;;;;;;4.53;3.35;;;30.50;92.20;;;;;;5054347;28;20198;-66
2022/08/08 09:54:58;;;;;;;3.00;2.65;;;30.60;91.60;;;;;;5053878;28;20183;-66
2022/08/08 09:57:35;;;;;;;4.38;3.22;;;30.90;92.60;;;;;;5054291;28;20524;-66
2022/08/08 10:00:03;;;;;;;4.18;3.55;;;31.30;93.70;;;;;;5054247;28;20194;-66
2022/08/08 10:02:35;;;;;;;3.05;2.85;;;31.60;92.30;;;;;;5054085;28;20225;-66
2022/08/08 10:05:21;;;;;;;4.05;2.80;;;32.00;92.90;;;;;;5053524;28;20740;-67
2022/08/08 10:07:50;;;;;;;6.80;3.30;;;32.10;90.90;;;;;;5027133;28;20179;-66
2022/08/08 10:10:25;;;;;;;3.70;3.40;;;32.10;90.50;;;;;;5054121;28;20178;-66
2022/08/08 10:12:52;;;;;;;3.72;3.42;;;32.30;88.10;;;;;;5053898;28;20651;-66
2022/08/08 10:15:18;;;;;;;3.83;3.20;;;32.10;85.50;;;;;;5053822;28;20209;-66
2022/08/08 10:17:51;;;;;;;4.88;3.25;;;31.60;85.60;;;;;;5053192;28;20674;-66
2022/08/08 10:20:17;;;;;;;3.00;2.80;;;31.20;85.80;;;;;;5035075;28;20201;-66
2022/08/08 10:23:00;;;;;;;3.95;3.55;;;31.00;87.20;;;;;;5054414;28;20179;-66
2022/08/08 10:25:27;;;;;;;3.75;3.35;;;30.70;87.00;;;;;;5053576;28;20701;-65
2022/08/08 10:27:54;;;;;;;3.53;3.22;;;30.70;85.90;;;;;;5053533;28;20663;-66
2022/08/08 10:30:22;;;;;;;5.45;3.58;;;30.80;88.00;;;;;;5054015;28;20167;-66
2022/08/08 10:32:56;;;;;;;6.05;3.45;;;30.80;87.60;;;;;;5053227;28;20175;-66
2022/08/08 10:35:27;;;;;;;3.63;3.33;;;31.20;88.00;;;;;;5035640;28;20628;-65
2022/08/08 10:37:59;;;;;;;3.50;3.20;;;31.60;87.00;;;;;;5054434;28;20205;-67
2022/08/08 10:40:27;;;;;;;3.58;3.13;;;31.80;86.90;;;;;;5027913;28;20210;-67
2022/08/08 10:42:59;;;;;;;3.33;3.03;;;31.70;87.80;;;;;;5034982;28;20186;-66
2022/08/08 10:45:26;;;;;;;3.88;3.28;;;32.00;88.10;;;;;;5035648;28;20236;-67
2022/08/08 10:47:56;;;;;;;4.05;3.75;;;32.00;84.50;;;;;;5053149;28;20221;-68
2022/08/08 10:50:30;;;;;;;4.13;3.72;;;31.70;84.70;;;;;;5035458;28;20193;-66
2022/08/08 10:53:02;;;;;;;4.25;3.50;;;31.70;88.90;;;;;;5053280;28;20171;-66
2022/08/08 10:55:28;;;;;;;3.60;3.30;;;32.00;86.00;;;;;;5052938;28;20198;-67
2022/08/08 10:57:54;;;;;;;4.82;3.10;;;32.10;83.90;;;;;;5053128;28;20707;-67
2022/08/08 11:00:24;;;;;;;3.42;3.22;;;32.20;82.10;;;;;;5035215;28;20285;-66
2022/08/08 11:02:50;;;;;;;4.13;3.72;;;32.10;84.50;;;;;;5053174;28;20539;-67
2022/08/08 11:05:17;;;;;;;4.07;3.67;;;32.30;82.30;;;;;;5052555;28;20670;-67
2022/08/08 11:07:48;;;;;;;7.93;3.45;;;32.30;83.60;;;;;;5052610;28;20205;-66
2022/08/08 11:10:16;;;;;;;3.75;3.45;;;32.60;82.10;;;;;;5053306;28;20167;-66
2022/08/08 11:12:54;;;;;;;4.85;3.47;;;32.50;84.20;;;;;;5052747;28;20175;-66
2022/08/08 11:15:22;;;;;;;4.97;3.20;;;32.60;81.60;;;;;;5052778;28;20205;-66
2022/08/08 11:17:48;;;;;;;4.78;3.70;;;32.50;81.30;;;;;;5034867;28;20182;-66
2022/08/08 11:20:17;;;;;;;5.45;3.20;;;32.50;80.10;;;;;;5053079;28;20178;-67
2022/08/08 11:22:51;;;;;;;3.88;3.53;;;32.70;81.80;;;;;;5034752;28;20245;-66
2022/08/08 11:25:18;;;;;;;3.63;3.33;;;32.60;79.10;;;;;;5052458;28;20691;-66
2022/08/08 11:27:46;;;;;;;4.20;3.80;;;32.50;82.00;;;;;;5034471;28;21031;-65
2022/08/08 11:30:13;;;;;;;5.43;3.67;;;32.60;78.90;;;;;;5052870;28;20589;-66
2022/08/08 11:32:41;;;;;;;5.25;4.00;;;32.60;80.80;;;;;;5052455;28;20266;-66
2022/08/08 11:35:09;;;;;;;4.00;3.20;;;32.50;74.60;;;;;;5034633;28;20583;-65
2022/08/08 11:37:36;;;;;;;3.40;3.10;;;32.70;78.90;;;;;;5052062;28;20194;-67
2022/08/08 11:40:05;;;;;;;4.20;3.38;;;32.60;73.90;;;;;;5034481;28;20205;-66
2022/08/08 11:42:32;;;;;;;4.30;3.47;;;32.60;78.70;;;;;;5052034;28;20643;-67
2022/08/08 11:44:57;;;;;;;4.13;3.50;;;32.80;79.70;;;;;;5034000;28;20249;-66
2022/08/08 11:47:24;;;;;;;3.85;3.55;;;32.90;76.90;;;;;;5052328;28;20178;-66
2022/08/08 11:50:00;;;;;;;5.90;3.25;;;33.00;76.60;;;;;;5051914;28;20182;-66
2022/08/08 11:52:26;;;;;;;4.05;3.42;;;33.20;76.90;;;;;;5052292;28;20188;-66
2022/08/08 11:54:52;;;;;;;5.63;3.40;;;33.30;75.00;;;;;;5050708;28;20190;-67
2022/08/08 11:57:24;;;;;;;6.68;3.35;;;33.20;79.50;;;;;;5052240;28;20202;-66
2022/08/08 11:59:58;;;;;;;3.40;3.20;;;33.10;71.40;;;;;;5051722;28;20182;-66
2022/08/08 12:02:27;;;;;;;7.05;3.50;;;33.00;72.70;;;;;;5034343;28;20171;-66
2022/08/08 12:05:13;;;;;;;4.18;3.78;;;32.90;70.70;;;;;;5033357;28;20565;-65
2022/08/08 12:07:53;;;;;;;3.65;3.35;;;32.70;72.20;;;;;;5051361;28;20564;-67
2022/08/08 12:10:24;;;;;;;3.55;3.25;;;32.50;75.00;;;;;;5034147;28;20265;-66
2022/08/08 12:13:06;;;;;;;3.55;3.25;;;32.80;72.30;;;;;;5048432;28;20182;-66
2022/08/08 12:15:36;;;;;;;3.72;3.38;;;33.00;70.40;;;;;;5022056;28;20207;-66
2022/08/08 12:18:13;;;;;;;3.90;3.60;;;32.40;72.30;;;;;;5014580;28;20171;-67
2022/08/08 12:20:40;;;;;;;6.38;4.07;;;32.40;71.60;;;;;;5032102;28;20253;-67
2022/08/08 12:23:06;;;;;;;3.60;3.30;;;32.50;70.70;;;;;;5032188;28;20198;-68
2022/08/08 12:25:33;;;;;;;5.22;3.22;;;32.50;73.10;;;;;;5013902;28;20277;-67
2022/08/08 12:28:07;;;;;;;3.78;3.47;;;32.70;69.80;;;;;;5028973;28;20182;-66
2022/08/08 12:30:34;;;;;;;3.78;3.38;;;32.50;69.40;;;;;;5032346;28;21372;-66
2022/08/08 12:33:01;;;;;;;3.50;3.20;;;32.70;72.30;;;;;;5046430;28;20182;-66
2022/08/08 12:35:37;;;;;;;5.93;3.80;;;33.30;70.40;;;;;;5013675;28;20207;-67
2022/08/08 12:38:08;;;;;;;4.05;3.25;;;33.40;67.30;;;;;;5040619;28;20182;-67
2022/08/08 12:40:37;;;;;;;4.43;3.70;;;33.30;68.70;;;;;;5033640;28;20174;-66
2022/08/08 12:43:03;;;;;;;3.40;3.20;;;33.50;69.90;;;;;;5051105;28;20186;-67
2022/08/08 12:45:33;;;;;;;3.30;3.10;;;33.50;69.40;;;;;;5031141;28;20214;-66
2022/08/08 12:48:01;;;;;;;3.95;3.20;;;33.60;67.70;;;;;;5031719;28;20240;-67
2022/08/08 12:50:38;;;;;;;3.63;3.10;;;33.50;67.60;;;;;;5051340;28;20178;-67
2022/08/08 12:53:03;;;;;;;4.32;3.92;;;33.40;69.20;;;;;;5033168;28;20175;-67
2022/08/08 12:55:29;;;;;;;3.63;3.30;;;33.50;66.00;;;;;;5050805;28;20248;-67
2022/08/08 12:57:54;;;;;;;3.75;3.40;;;33.40;67.50;;;;;;5050638;28;20527;-66
2022/08/08 13:00:26;;;;;;;6.00;3.08;;;33.60;68.70;;;;;;5033279;28;20178;-66
2022/08/08 13:02:57;;;;;;;5.28;3.70;;;33.20;67.80;;;;;;5051156;28;20262;-66
2022/08/08 13:05:23;;;;;;;3.83;2.90;;;33.00;69.00;;;;;;5050438;28;20210;-66
2022/08/08 13:07:49;;;;;;;3.47;3.17;;;32.90;71.60;;;;;;5050551;28;20179;-67
2022/08/08 13:10:15;;;;;;;3.47;3.17;;;32.90;65.60;;;;;;5050909;28;20308;-66
2022/08/08 13:12:43;;;;;;;3.30;3.00;;;32.80;64.10;;;;;;5050852;28;20250;-66
2022/08/08 13:15:11;;;;;;;5.47;3.80;;;32.80;66.30;;;;;;5032510;28;20278;-66
2022/08/08 13:17:38;;;;;;;3.58;3.10;;;32.80;65.00;;;;;;5050225;28;20265;-65
2022/08/08 13:20:15;;;;;;;3.55;3.25;;;32.70;70.30;;;;;;5050797;28;20186;-67